createdAt,value
2023-12-16T00:01:45.262Z,39.80
2023-12-16T00:04:15.989Z,41.40
2023-12-16T00:06:46.540Z,37.20
2023-12-16T00:09:16.881Z,36.30
2023-12-16T00:11:47.307Z,35.20
2023-12-16T00:14:17.751Z,39.10
2023-12-16T00:16:48.194Z,36.70
2023-12-16T00:19:18.681Z,37.00
2023-12-16T00:21:49.041Z,36.90
2023-12-16T00:24:19.391Z,35.60
2023-12-16T00:26:49.642Z,33.90
2023-12-16T00:29:19.884Z,36.30
2023-12-16T00:31:50.185Z,36.00
2023-12-16T00:34:20.711Z,32.60
2023-12-16T00:36:51.118Z,32.30
2023-12-16T00:39:21.473Z,30.20
2023-12-16T00:41:51.806Z,31.90
2023-12-16T00:44:22.047Z,31.90
2023-12-16T00:46:52.528Z,28.50
2023-12-16T00:49:22.870Z,31.10
2023-12-16T00:51:53.270Z,30.00
2023-12-16T00:54:23.572Z,29.50
2023-12-16T00:56:54.502Z,28.60
2023-12-16T00:59:27.312Z,27.90
2023-12-16T01:01:57.778Z,29.50
2023-12-16T01:04:28.109Z,28.40
2023-12-16T01:06:58.423Z,72.60
2023-12-16T01:09:28.680Z,145.70
2023-12-16T01:11:58.909Z,88.80
2023-12-16T01:14:29.238Z,70.80
2023-12-16T01:16:59.564Z,71.00
2023-12-16T01:19:30.072Z,71.90
2023-12-16T01:22:00.492Z,68.30
2023-12-16T01:24:33.445Z,70.00
2023-12-16T01:27:03.894Z,65.40
2023-12-16T01:29:34.266Z,63.90
2023-12-16T01:32:04.922Z,66.40
2023-12-16T01:34:35.215Z,62.30
2023-12-16T01:37:05.658Z,63.10
2023-12-16T01:39:35.983Z,56.20
2023-12-16T01:42:06.762Z,56.30
2023-12-16T01:44:37.338Z,61.10
2023-12-16T01:47:08.058Z,55.40
2023-12-16T01:49:38.978Z,52.00
2023-12-16T01:52:09.506Z,56.30
2023-12-16T01:54:39.798Z,54.60
2023-12-16T01:57:10.039Z,53.30
2023-12-16T01:59:40.591Z,52.70
2023-12-16T02:02:10.865Z,50.20
2023-12-16T02:04:41.175Z,52.90
2023-12-16T02:07:11.522Z,45.40
2023-12-16T02:09:41.872Z,49.70
2023-12-16T02:12:12.535Z,50.10
2023-12-16T02:14:42.845Z,45.50
2023-12-16T02:17:14.465Z,43.60
2023-12-16T02:19:45.252Z,45.00
2023-12-16T02:22:15.646Z,45.60
2023-12-16T02:24:45.913Z,42.30
2023-12-16T02:27:16.484Z,44.90
2023-12-16T02:29:47.198Z,44.60
2023-12-16T02:32:18.438Z,43.80
2023-12-16T02:34:49.472Z,45.70
2023-12-16T02:37:19.970Z,39.40
2023-12-16T02:39:50.523Z,39.10
2023-12-16T02:42:21.011Z,35.80
2023-12-16T02:44:51.262Z,40.90
2023-12-16T02:47:21.484Z,41.80
2023-12-16T02:49:51.812Z,37.60
2023-12-16T02:52:22.224Z,39.80
2023-12-16T02:54:52.602Z,38.90
2023-12-16T02:57:22.893Z,36.20
2023-12-16T02:59:53.289Z,38.00
2023-12-16T03:02:23.537Z,34.50
2023-12-16T03:04:53.890Z,34.90
2023-12-16T03:07:24.323Z,33.20
2023-12-16T03:09:54.618Z,32.60
2023-12-16T03:12:25.677Z,35.70
2023-12-16T03:14:56.085Z,33.00
2023-12-16T03:17:26.556Z,33.10
2023-12-16T03:19:57.147Z,34.80
2023-12-16T03:22:27.441Z,33.30
2023-12-16T03:24:57.745Z,30.30
2023-12-16T03:27:27.993Z,32.80
2023-12-16T03:29:58.434Z,29.80
2023-12-16T03:32:28.667Z,31.30
2023-12-16T03:34:58.950Z,28.30
2023-12-16T03:37:29.414Z,27.00
2023-12-16T03:39:59.857Z,26.60
2023-12-16T03:42:30.246Z,31.90
2023-12-16T03:45:00.616Z,27.80
2023-12-16T03:47:31.127Z,26.40
2023-12-16T03:50:01.422Z,28.00
2023-12-16T03:52:31.745Z,28.80
2023-12-16T03:55:02.295Z,28.20
2023-12-16T03:57:33.941Z,27.00
2023-12-16T04:00:04.426Z,27.50
2023-12-16T04:02:34.854Z,28.00
2023-12-16T04:05:05.549Z,26.60
2023-12-16T04:07:36.035Z,25.50
2023-12-16T04:10:08.057Z,22.90
2023-12-16T04:12:38.378Z,24.70
2023-12-16T04:15:12.021Z,24.10
2023-12-16T04:17:42.782Z,23.40
2023-12-16T04:20:13.903Z,26.80
2023-12-16T04:22:44.314Z,22.40
2023-12-16T04:25:14.736Z,21.40
2023-12-16T04:27:45.036Z,22.60
2023-12-16T04:30:15.878Z,22.70
2023-12-16T04:32:46.279Z,25.00
2023-12-16T04:35:16.674Z,21.70
2023-12-16T04:37:46.948Z,21.00
2023-12-16T04:40:17.653Z,21.50
2023-12-16T04:42:47.947Z,21.40
2023-12-16T04:45:18.377Z,18.70
2023-12-16T04:47:48.811Z,21.10
2023-12-16T04:50:19.452Z,19.30
2023-12-16T04:52:49.685Z,18.10
2023-12-16T04:55:20.042Z,17.10
2023-12-16T04:57:50.348Z,21.40
2023-12-16T05:00:21.010Z,18.10
2023-12-16T05:02:51.404Z,18.80
2023-12-16T05:05:21.648Z,18.30
2023-12-16T05:07:51.901Z,17.50
2023-12-16T05:10:22.224Z,19.30
2023-12-16T05:12:52.528Z,18.00
2023-12-16T05:15:22.800Z,15.70
2023-12-16T05:17:53.111Z,15.60
2023-12-16T05:20:23.783Z,16.50
2023-12-16T05:22:54.088Z,21.60
2023-12-16T05:25:24.363Z,15.30
2023-12-16T05:27:54.726Z,16.70
2023-12-16T05:30:25.059Z,17.40
2023-12-16T05:32:55.538Z,16.30
2023-12-16T05:35:25.916Z,16.30
2023-12-16T05:37:56.301Z,16.80
2023-12-16T05:40:26.687Z,16.90
2023-12-16T05:42:57.049Z,17.10
2023-12-16T05:45:27.305Z,13.30
2023-12-16T05:47:57.696Z,15.60
2023-12-16T05:50:28.155Z,16.90
2023-12-16T05:52:58.514Z,14.90
2023-12-16T05:55:29.499Z,13.70
2023-12-16T05:57:59.812Z,13.60
2023-12-16T06:00:30.283Z,12.80
2023-12-16T06:03:00.639Z,13.60
2023-12-16T06:05:31.082Z,14.20
2023-12-16T06:08:01.376Z,16.00
2023-12-16T06:10:32.105Z,12.50
2023-12-16T06:13:02.484Z,12.90
2023-12-16T06:15:32.842Z,12.80
2023-12-16T06:18:05.269Z,13.40
2023-12-16T06:20:36.100Z,11.30
2023-12-16T06:23:06.353Z,13.50
2023-12-16T06:25:36.767Z,11.20
2023-12-16T06:28:07.194Z,13.20
2023-12-16T06:30:38.363Z,11.20
2023-12-16T06:33:08.781Z,14.60
2023-12-16T06:35:39.223Z,12.00
2023-12-16T06:38:09.485Z,12.50
2023-12-16T06:40:39.851Z,12.20
2023-12-16T06:43:10.149Z,13.20
2023-12-16T06:45:40.527Z,12.10
2023-12-16T06:48:10.827Z,10.60
2023-12-16T06:50:41.278Z,11.70
2023-12-16T06:53:12.661Z,10.50
2023-12-16T06:55:43.053Z,13.10
2023-12-16T06:58:13.455Z,10.80
2023-12-16T07:00:43.915Z,10.60
2023-12-16T07:03:14.477Z,10.40
2023-12-16T07:05:44.981Z,10.50
2023-12-16T07:08:15.707Z,11.00
2023-12-16T07:10:46.488Z,12.20
2023-12-16T07:13:16.822Z,9.50
2023-12-16T07:15:47.161Z,9.60
2023-12-16T07:18:17.512Z,9.30
2023-12-16T07:20:47.924Z,10.00
2023-12-16T07:23:18.198Z,10.60
2023-12-16T07:25:48.760Z,10.40
2023-12-16T07:28:19.071Z,7.50
2023-12-16T07:30:49.629Z,8.80
2023-12-16T07:33:19.996Z,7.90
2023-12-16T07:35:53.304Z,10.10
2023-12-16T07:38:25.188Z,8.70
2023-12-16T07:40:55.889Z,8.10
2023-12-16T07:43:26.404Z,8.80
2023-12-16T07:45:56.732Z,7.50
2023-12-16T07:48:27.186Z,8.60
2023-12-16T07:50:57.724Z,8.90
2023-12-16T07:53:28.122Z,9.00
2023-12-16T07:55:58.426Z,8.80
2023-12-16T07:58:28.726Z,8.30
2023-12-16T08:00:59.214Z,8.80
2023-12-16T08:03:29.542Z,9.80
2023-12-16T08:05:59.904Z,8.40
2023-12-16T08:08:30.196Z,8.70
2023-12-16T08:11:00.434Z,7.90
2023-12-16T08:13:31.197Z,8.40
2023-12-16T08:16:01.824Z,8.70
2023-12-16T08:18:32.540Z,8.90
2023-12-16T08:21:03.430Z,8.00
2023-12-16T08:23:33.702Z,5.90
2023-12-16T08:26:04.596Z,6.60
2023-12-16T08:28:34.965Z,7.40
2023-12-16T08:31:05.981Z,7.70
2023-12-16T08:33:36.414Z,8.10
2023-12-16T08:36:08.607Z,8.50
2023-12-16T08:38:40.686Z,8.10
2023-12-16T08:41:11.369Z,7.60
2023-12-16T08:43:43.101Z,10.90
2023-12-16T08:46:13.827Z,7.70
2023-12-16T08:48:44.292Z,8.80
2023-12-16T08:51:14.555Z,8.10
2023-12-16T08:53:44.925Z,7.70
2023-12-16T08:56:15.269Z,5.40
2023-12-16T08:58:45.729Z,5.80
2023-12-16T09:01:16.263Z,7.50
2023-12-16T09:03:46.861Z,5.80
2023-12-16T09:06:17.314Z,7.80
2023-12-16T09:08:47.585Z,6.90
2023-12-16T09:11:18.007Z,6.80
2023-12-16T09:13:48.326Z,6.70
2023-12-16T09:16:19.139Z,65.80
2023-12-16T09:18:49.511Z,33.60
2023-12-16T09:21:20.648Z,24.00
2023-12-16T09:23:50.891Z,30.20
2023-12-16T09:26:22.460Z,26.60
2023-12-16T09:28:53.017Z,24.10
2023-12-16T09:31:23.476Z,25.50
2023-12-16T09:33:54.014Z,23.50
2023-12-16T09:36:28.206Z,24.70
2023-12-16T09:38:59.072Z,23.50
2023-12-16T09:41:30.262Z,22.40
2023-12-16T09:44:01.090Z,21.80
2023-12-16T09:46:32.887Z,22.70
2023-12-16T09:49:03.778Z,18.50
2023-12-16T09:51:34.098Z,18.70
2023-12-16T09:54:04.436Z,19.10
2023-12-16T09:56:34.767Z,19.10
2023-12-16T09:59:05.049Z,19.80
2023-12-16T10:01:35.472Z,20.00
2023-12-16T10:04:06.131Z,19.10
2023-12-16T10:06:36.402Z,17.60
2023-12-16T10:09:06.654Z,16.60
2023-12-16T10:11:42.756Z,18.20
2023-12-16T10:14:14.201Z,16.70
2023-12-16T10:16:48.034Z,19.00
2023-12-16T10:19:19.095Z,18.30
2023-12-16T10:21:49.873Z,16.90
2023-12-16T10:24:20.282Z,15.70
2023-12-16T10:26:50.657Z,23.80
2023-12-16T10:29:22.713Z,19.40
2023-12-16T10:31:53.229Z,20.10
2023-12-16T10:34:23.635Z,21.10
2023-12-16T10:36:53.934Z,20.40
2023-12-16T10:39:24.261Z,16.40
2023-12-16T10:41:54.522Z,17.00
2023-12-16T10:44:24.771Z,18.30
2023-12-16T10:46:55.954Z,14.50
2023-12-16T10:49:29.573Z,30.70
2023-12-16T10:52:04.873Z,38.50
2023-12-16T10:54:38.456Z,43.00
2023-12-16T10:57:27.001Z,44.40
2023-12-16T11:00:05.794Z,41.50
2023-12-16T11:02:40.337Z,35.70
2023-12-16T11:05:16.019Z,32.50
2023-12-16T11:07:46.441Z,32.60
2023-12-16T11:10:17.278Z,30.00
2023-12-16T11:12:47.642Z,31.40
2023-12-16T11:15:18.515Z,30.10
2023-12-16T11:17:53.565Z,32.50
2023-12-16T11:20:24.385Z,31.70
2023-12-16T11:22:54.869Z,27.80
2023-12-16T11:25:25.323Z,32.50
2023-12-16T11:27:55.741Z,28.50
2023-12-16T11:30:26.040Z,30.00
2023-12-16T11:32:56.954Z,27.60
2023-12-16T11:35:50.000Z,27.80
2023-12-16T11:38:42.929Z,25.50
2023-12-16T11:41:34.018Z,26.80
2023-12-16T11:44:04.450Z,25.00
2023-12-16T11:46:43.050Z,23.00
2023-12-16T11:49:15.817Z,24.50
2023-12-16T11:51:46.404Z,41.70
2023-12-16T11:54:16.688Z,59.40
2023-12-16T11:56:46.976Z,56.70
2023-12-16T11:59:17.276Z,52.60
2023-12-16T12:01:47.766Z,45.40
2023-12-16T12:04:18.185Z,43.30
2023-12-16T12:06:48.525Z,43.00
2023-12-16T12:09:18.977Z,38.90
2023-12-16T12:11:49.593Z,40.20
2023-12-16T12:14:19.883Z,38.00
2023-12-16T12:16:50.627Z,39.40
2023-12-16T12:19:21.072Z,38.20
2023-12-16T12:21:52.890Z,36.20
2023-12-16T12:24:23.765Z,38.10
2023-12-16T12:26:54.797Z,35.20
2023-12-16T12:29:25.114Z,34.10
2023-12-16T12:31:55.444Z,32.90
2023-12-16T12:34:25.795Z,33.20
2023-12-16T12:36:58.690Z,31.00
2023-12-16T12:39:28.966Z,34.50
2023-12-16T12:42:06.605Z,31.00
2023-12-16T12:44:38.696Z,30.10
2023-12-16T12:47:10.098Z,29.70
2023-12-16T12:49:41.357Z,28.20
2023-12-16T12:52:11.781Z,29.30
2023-12-16T12:54:48.334Z,26.80
2023-12-16T12:57:22.869Z,27.10
2023-12-16T13:00:00.578Z,26.70
2023-12-16T13:02:34.204Z,29.40
2023-12-16T13:05:04.822Z,27.70
2023-12-16T13:07:35.094Z,34.50
2023-12-16T13:10:06.151Z,74.00
2023-12-16T13:12:36.462Z,76.90
2023-12-16T13:15:08.226Z,75.80
2023-12-16T13:17:39.374Z,73.70
2023-12-16T13:20:11.289Z,70.70
2023-12-16T13:22:42.734Z,61.80
2023-12-16T13:25:13.202Z,56.00
2023-12-16T13:27:43.594Z,52.60
2023-12-16T13:30:15.063Z,54.70
2023-12-16T13:32:45.485Z,47.60
2023-12-16T13:35:15.934Z,49.90
2023-12-16T13:37:46.174Z,49.40
2023-12-16T13:40:16.452Z,120.20
2023-12-16T13:42:46.840Z,82.50
2023-12-16T13:45:17.584Z,93.50
2023-12-16T13:47:47.984Z,86.60
2023-12-16T13:50:18.320Z,85.20
2023-12-16T13:52:50.603Z,77.10
2023-12-16T13:55:20.849Z,75.90
2023-12-16T13:57:51.205Z,72.80
2023-12-16T14:00:22.875Z,72.40
2023-12-16T14:02:53.284Z,72.20
2023-12-16T14:05:23.764Z,71.20
2023-12-16T14:07:54.021Z,69.40
2023-12-16T14:10:24.520Z,67.30
2023-12-16T14:12:54.805Z,67.00
2023-12-16T14:15:25.064Z,68.20
2023-12-16T14:17:55.399Z,61.10
2023-12-16T14:20:25.775Z,62.30
2023-12-16T14:22:56.022Z,60.10
2023-12-16T14:25:27.014Z,59.30
2023-12-16T14:27:57.287Z,54.00
2023-12-16T14:30:27.640Z,55.50
2023-12-16T14:32:58.166Z,58.50
2023-12-16T14:35:28.588Z,57.50
2023-12-16T14:37:58.846Z,53.10
2023-12-16T14:40:29.337Z,49.70
2023-12-16T14:42:59.636Z,48.00
2023-12-16T14:45:30.193Z,50.40
2023-12-16T14:48:00.598Z,45.80
2023-12-16T14:50:30.953Z,49.80
2023-12-16T14:53:01.273Z,47.10
2023-12-16T14:55:31.708Z,44.10
2023-12-16T14:58:02.538Z,43.00
2023-12-16T15:00:32.880Z,42.30
2023-12-16T15:03:03.187Z,41.50
2023-12-16T15:05:33.721Z,42.70
2023-12-16T15:08:04.056Z,40.60
2023-12-16T15:10:34.393Z,39.80
2023-12-16T15:13:07.879Z,39.70
2023-12-16T15:15:39.389Z,83.40
2023-12-16T15:18:11.002Z,98.30
2023-12-16T15:20:41.376Z,83.20
2023-12-16T15:23:11.668Z,70.50
2023-12-16T15:25:42.170Z,70.70
2023-12-16T15:28:12.452Z,65.70
2023-12-16T15:30:42.741Z,64.00
2023-12-16T15:33:13.140Z,63.60
2023-12-16T15:35:43.602Z,61.40
2023-12-16T15:38:14.029Z,60.30
2023-12-16T15:40:44.372Z,55.70
2023-12-16T15:43:14.622Z,58.00
2023-12-16T15:45:45.110Z,99.90
2023-12-16T15:48:15.491Z,86.70
2023-12-16T15:50:45.908Z,78.90
2023-12-16T15:53:16.385Z,77.10
2023-12-16T15:55:46.829Z,71.40
2023-12-16T15:58:17.217Z,69.70
2023-12-16T16:00:47.484Z,75.40
2023-12-16T16:03:19.257Z,128.80
2023-12-16T16:05:51.106Z,117.40
2023-12-16T16:08:21.791Z,95.50
2023-12-16T16:10:53.046Z,98.40
2023-12-16T16:13:23.329Z,89.60
2023-12-16T16:15:53.726Z,94.60
2023-12-16T16:18:24.058Z,98.70
2023-12-16T16:20:54.422Z,97.90
2023-12-16T16:23:24.956Z,93.90
2023-12-16T16:25:55.303Z,93.50
2023-12-16T16:28:25.602Z,85.50
2023-12-16T16:30:55.909Z,83.90
2023-12-16T16:33:26.305Z,81.40
2023-12-16T16:35:56.668Z,85.20
2023-12-16T16:38:27.332Z,85.50
2023-12-16T16:40:57.574Z,80.60
2023-12-16T16:43:27.852Z,75.70
2023-12-16T16:45:58.162Z,76.70
2023-12-16T16:48:28.677Z,77.40
2023-12-16T16:50:59.065Z,76.80
2023-12-16T16:53:29.338Z,69.40
2023-12-16T16:55:59.662Z,70.20
2023-12-16T16:58:29.966Z,70.40
2023-12-16T17:01:00.298Z,73.60
2023-12-16T17:03:35.810Z,66.10
2023-12-16T17:06:06.980Z,68.50
2023-12-16T17:08:37.728Z,64.80
2023-12-16T17:11:08.257Z,66.90
2023-12-16T17:13:38.495Z,64.90
2023-12-16T17:16:13.826Z,61.80
2023-12-16T17:18:44.315Z,60.50
2023-12-16T17:21:14.616Z,60.80
2023-12-16T17:23:44.909Z,59.00
2023-12-16T17:26:15.247Z,61.60
2023-12-16T17:28:45.500Z,56.30
2023-12-16T17:31:15.957Z,58.00
2023-12-16T17:33:46.350Z,58.40
2023-12-16T17:36:16.928Z,57.30
2023-12-16T17:38:47.223Z,87.80
2023-12-16T17:41:17.615Z,92.60
2023-12-16T17:43:47.873Z,78.90
2023-12-16T17:46:18.293Z,69.80
2023-12-16T17:48:48.811Z,78.30
2023-12-16T17:51:19.537Z,77.70
2023-12-16T17:53:50.053Z,73.90
2023-12-16T17:56:20.318Z,72.30
2023-12-16T17:58:50.601Z,68.40
2023-12-16T18:01:21.059Z,72.60
2023-12-16T18:03:52.415Z,68.20
2023-12-16T18:06:23.004Z,66.80
2023-12-16T18:08:53.400Z,70.20
2023-12-16T18:11:23.704Z,65.70
2023-12-16T18:13:54.176Z,65.10
2023-12-16T18:16:24.572Z,63.40
2023-12-16T18:18:54.968Z,60.60
2023-12-16T18:21:25.351Z,61.70
2023-12-16T18:23:56.683Z,58.60
2023-12-16T18:26:27.518Z,59.80
2023-12-16T18:28:57.836Z,55.50
2023-12-16T18:31:28.208Z,58.60
2023-12-16T18:33:58.670Z,56.70
2023-12-16T18:36:29.921Z,57.60
2023-12-16T18:39:00.251Z,54.20
2023-12-16T18:41:30.593Z,52.80
2023-12-16T18:44:00.875Z,52.60
2023-12-16T18:46:33.437Z,56.80
2023-12-16T18:49:03.961Z,48.10
2023-12-16T18:51:34.385Z,49.30
2023-12-16T18:54:04.989Z,48.80
2023-12-16T18:56:35.303Z,48.70
2023-12-16T18:59:05.621Z,45.10
2023-12-16T19:01:36.953Z,48.20
2023-12-16T19:04:07.517Z,46.70
2023-12-16T19:06:38.020Z,47.80
2023-12-16T19:09:10.001Z,45.10
2023-12-16T19:11:40.889Z,44.30
2023-12-16T19:14:11.632Z,45.00
2023-12-16T19:16:41.916Z,43.80
2023-12-16T19:19:12.271Z,43.50
2023-12-16T19:21:42.603Z,40.30
2023-12-16T19:24:14.750Z,40.80
2023-12-16T19:26:45.263Z,40.30
2023-12-16T19:29:15.691Z,40.90
2023-12-16T19:31:45.985Z,39.80
2023-12-16T19:34:16.487Z,39.30
2023-12-16T19:36:48.682Z,38.40
2023-12-16T19:39:22.649Z,38.70
2023-12-16T19:41:53.715Z,40.20
2023-12-16T19:44:24.249Z,36.70
2023-12-16T19:46:54.564Z,39.90
2023-12-16T19:49:25.104Z,69.70
2023-12-16T19:51:55.572Z,62.10
2023-12-16T19:54:26.531Z,57.40
2023-12-16T19:56:56.838Z,57.70
2023-12-16T19:59:27.504Z,56.00
2023-12-16T20:01:57.782Z,53.90
2023-12-16T20:04:28.075Z,55.40
2023-12-16T20:06:58.396Z,52.60
2023-12-16T20:09:28.701Z,54.40
2023-12-16T20:11:58.983Z,51.70
2023-12-16T20:14:29.560Z,50.80
2023-12-16T20:16:59.810Z,48.40
2023-12-16T20:19:30.210Z,51.60
2023-12-16T20:22:02.821Z,48.70
2023-12-16T20:24:33.113Z,49.70
2023-12-16T20:27:03.470Z,45.70
2023-12-16T20:29:33.761Z,47.40
2023-12-16T20:32:04.018Z,49.60
2023-12-16T20:34:34.401Z,76.70
2023-12-16T20:37:06.505Z,59.40
2023-12-16T20:39:53.916Z,56.00
2023-12-16T20:42:24.172Z,57.00
2023-12-16T20:44:54.480Z,55.40
2023-12-16T20:47:24.747Z,57.60
2023-12-16T20:49:55.102Z,53.10
2023-12-16T20:52:26.640Z,55.90
2023-12-16T20:54:56.899Z,54.30
2023-12-16T20:57:27.136Z,49.30
2023-12-16T20:59:57.408Z,50.20
2023-12-16T21:02:27.656Z,50.30
2023-12-16T21:04:57.922Z,46.10
2023-12-16T21:07:28.615Z,48.50
2023-12-16T21:09:58.881Z,49.90
2023-12-16T21:12:29.186Z,48.30
2023-12-16T21:14:59.761Z,46.00
2023-12-16T21:17:30.389Z,44.00
2023-12-16T21:20:01.125Z,44.70
2023-12-16T21:22:31.519Z,43.10
2023-12-16T21:25:01.788Z,45.40
2023-12-16T21:27:32.134Z,42.70
2023-12-16T21:30:02.535Z,40.00
2023-12-16T21:32:33.074Z,40.10
2023-12-16T21:35:03.738Z,40.20
2023-12-16T21:37:34.139Z,40.10
2023-12-16T21:40:04.683Z,36.40
2023-12-16T21:42:34.919Z,37.80
2023-12-16T21:45:05.861Z,36.80
2023-12-16T21:47:36.523Z,34.80
2023-12-16T21:50:07.946Z,35.20
2023-12-16T21:52:38.206Z,35.80
2023-12-16T21:55:10.270Z,34.90
2023-12-16T21:57:40.736Z,32.30
2023-12-16T22:00:13.010Z,32.60
2023-12-16T22:02:43.328Z,33.80
2023-12-16T22:05:15.435Z,33.00
2023-12-16T22:07:45.752Z,31.10
2023-12-16T22:10:16.235Z,30.40
2023-12-16T22:12:46.559Z,31.50
2023-12-16T22:15:17.087Z,31.90
2023-12-16T22:17:47.452Z,30.50
2023-12-16T22:20:18.578Z,29.40
2023-12-16T22:22:49.001Z,31.10
2023-12-16T22:25:19.387Z,26.90
2023-12-16T22:27:49.727Z,28.40
2023-12-16T22:30:20.097Z,29.10
2023-12-16T22:32:50.406Z,27.70
2023-12-16T22:35:24.218Z,26.80
2023-12-16T22:37:55.234Z,27.20
2023-12-16T22:40:25.625Z,26.60
2023-12-16T22:42:55.846Z,25.80
2023-12-16T22:45:26.327Z,25.40
2023-12-16T22:47:56.875Z,25.90
2023-12-16T22:50:27.513Z,24.90
2023-12-16T22:52:57.977Z,23.80
2023-12-16T22:55:28.274Z,24.20
2023-12-16T22:57:58.542Z,24.30
2023-12-16T23:00:31.913Z,22.80
2023-12-16T23:03:02.599Z,21.60
2023-12-16T23:05:33.381Z,22.50
2023-12-16T23:08:03.891Z,20.80
2023-12-16T23:10:34.212Z,23.20
2023-12-16T23:13:04.454Z,21.60
2023-12-16T23:15:34.753Z,21.00
2023-12-16T23:18:05.751Z,23.10
2023-12-16T23:20:36.097Z,22.50
2023-12-16T23:23:06.329Z,20.50
2023-12-16T23:25:36.552Z,45.80
2023-12-16T23:28:07.208Z,100.10
2023-12-16T23:30:37.628Z,94.80
2023-12-16T23:33:08.066Z,83.90
2023-12-16T23:35:38.513Z,81.40
2023-12-16T23:38:08.754Z,72.00
2023-12-16T23:40:39.288Z,73.90
2023-12-16T23:43:09.510Z,67.10
2023-12-16T23:45:39.748Z,63.80
2023-12-16T23:48:10.350Z,63.30
2023-12-16T23:50:40.729Z,62.00
2023-12-16T23:53:11.062Z,61.00
2023-12-16T23:55:41.290Z,62.70
2023-12-16T23:58:11.686Z,58.40
